Time;durP1;ratioP1;P1;durP2;ratioP2;P2;SDS_P1;SDS_P2;PMS_P1;PMS_P2;Temp;Humidity;BMP_temperature;BMP_pressure;BME280_temperature;BME280_humidity;BME280_pressure;Samples;Min_cycle;Max_cycle;Signal;HPM_P1;HPM_P2
2024/02/11 00:00:38;;;;;;;57.22;8.95;;;;;;;;;;4991542;28;20055;-72
2024/02/11 00:03:42;;;;;;;62.67;9.57;;;;;;;;;;4991206;28;20030;-71
2024/02/11 00:06:46;;;;;;;54.55;8.43;;;;;;;;;;4990703;28;20050;-72
2024/02/11 00:09:51;;;;;;;63.13;9.23;;;;;;;;;;4979580;28;20049;-72
2024/02/11 00:12:57;;;;;;;61.35;8.43;;;;;;;;;;4990682;28;20045;-72
2024/02/11 00:16:01;;;;;;;50.67;7.00;;;14.70;99.90;;;;;;4990340;28;20061;-73
2024/02/11 00:19:06;;;;;;;51.78;7.40;;;;;;;;;;4993687;28;20042;-72
2024/02/11 00:22:12;;;;;;;58.90;7.80;;;;;;;;;;4995264;28;20046;-72
2024/02/11 00:25:16;;;;;;;57.20;8.43;;;;;;;;;;4982925;28;20054;-72
2024/02/11 00:28:21;;;;;;;74.82;11.10;;;;;;;;;;4982563;28;20034;-72
2024/02/11 00:31:26;;;;;;;67.85;9.77;;;;;;;;;;4982836;28;20517;-71
2024/02/11 00:34:31;;;;;;;54.33;9.20;;;;;;;;;;4993838;28;20054;-71
2024/02/11 00:37:35;;;;;;;62.90;9.30;;;;;;;;;;4993993;28;20030;-71
2024/02/11 00:40:40;;;;;;;57.20;8.15;;;;;;;;;;4994719;28;20211;-71
2024/02/11 00:43:44;;;;;;;51.35;7.80;;;;;;;;;;4994819;28;20505;-73
2024/02/11 00:46:49;;;;;;;59.65;8.15;;;;;;;;;;4994547;28;20083;-73
2024/02/11 00:49:54;;;;;;;51.05;7.22;;;;;;;;;;4993664;28;20043;-73
2024/02/11 00:53:02;;;;;;;49.55;8.23;;;14.80;99.90;;;;;;4994480;28;20524;-73
2024/02/11 00:56:08;;;;;;;52.03;7.05;;;;;;;;;;4994382;28;20053;-73
2024/02/11 00:59:16;;;;;;;44.75;6.38;;;;;;;;;;4993356;28;20042;-73
2024/02/11 01:02:20;;;;;;;45.22;5.57;;;;;;;;;;4982496;28;20132;-71
2024/02/11 01:05:24;;;;;;;46.60;5.85;;;;;;;;;;4993137;28;20042;-73
2024/02/11 01:08:29;;;;;;;42.80;7.30;;;;;;;;;;4994336;28;20042;-71
2024/02/11 01:11:33;;;;;;;45.17;7.40;;;;;;;;;;4993538;28;20394;-71
2024/02/11 01:14:37;;;;;;;60.00;8.32;;;;;;;;;;4994126;28;20146;-72
2024/02/11 01:17:41;;;;;;;47.17;6.97;;;;;;;;;;4994154;28;20066;-72
2024/02/11 01:20:48;;;;;;;48.25;8.18;;;;;;;;;;4993002;28;20515;-73
2024/02/11 01:23:52;;;;;;;50.10;7.13;;;;;;;;;;4981832;28;20038;-72
2024/02/11 01:26:56;;;;;;;56.47;7.53;;;;;;;;;;4993088;28;20058;-73
2024/02/11 01:30:01;;;;;;;50.78;7.20;;;;;;;;;;4991776;28;20043;-71
2024/02/11 01:33:06;;;;;;;56.60;7.93;;;;;;;;;;4992938;28;20537;-73
2024/02/11 01:36:12;;;;;;;54.45;7.78;;;;;;;;;;4992858;28;20656;-73
2024/02/11 01:39:16;;;;;;;58.80;8.02;;;;;;;;;;4981564;28;20046;-73
2024/02/11 01:42:20;;;;;;;54.28;7.50;;;;;;;;;;4992632;28;20034;-73
2024/02/11 01:45:25;;;;;;;51.40;7.80;;;;;;;;;;4993543;28;20046;-73
2024/02/11 01:48:30;;;;;;;42.22;6.85;;;;;;;;;;4992875;28;20045;-72
2024/02/11 01:51:35;;;;;;;53.95;6.22;;;14.60;99.90;;;;;;4993609;28;20051;-72
2024/02/11 01:54:40;;;;;;;43.85;7.78;;;;;;;;;;4992513;28;20049;-73
2024/02/11 01:57:45;;;;;;;52.90;6.22;;;16.30;99.90;;;;;;4993046;28;20235;-72
2024/02/11 02:00:49;;;;;;;40.88;5.68;;;14.70;99.90;;;;;;4993233;28;20156;-72
2024/02/11 02:03:54;;;;;;;50.95;6.10;;;14.60;99.90;;;;;;4992877;28;20045;-72
2024/02/11 02:06:59;;;;;;;36.70;4.78;;;;;;;;;;4993129;28;20189;-73
2024/02/11 02:10:04;;;;;;;28.75;5.20;;;;;;;;;;4993433;28;20067;-73
2024/02/11 02:13:10;;;;;;;30.95;4.38;;;;;;;;;;4992889;28;20050;-73
2024/02/11 02:16:15;;;;;;;37.72;4.97;;;;;;;;;;4993020;28;20514;-73
2024/02/11 02:19:20;;;;;;;34.67;5.03;;;;;;;;;;4993369;28;20414;-71
2024/02/11 02:22:24;;;;;;;27.77;3.45;;;;;;;;;;4992380;28;20045;-72
2024/02/11 02:25:30;;;;;;;31.48;3.97;;;;;;;;;;4992917;28;20053;-72
2024/02/11 02:28:34;;;;;;;38.17;4.90;;;14.50;99.90;;;;;;4992785;28;20043;-72
2024/02/11 02:31:39;;;;;;;34.95;4.75;;;;;;;;;;4992698;28;20049;-72
2024/02/11 02:34:43;;;;;;;36.22;4.63;;;;;;;;;;4980637;28;20046;-72
2024/02/11 02:37:50;;;;;;;27.00;4.03;;;14.60;99.90;;;;;;4980716;28;20533;-72
2024/02/11 02:40:54;;;;;;;39.70;4.28;;;;;;;;;;4992358;28;20053;-72
2024/02/11 02:43:59;;;;;;;29.17;4.10;;;;;;;;;;4992496;28;20041;-72
2024/02/11 02:47:03;;;;;;;35.95;3.92;;;;;;;;;;4992621;28;20409;-72
2024/02/11 02:50:08;;;;;;;40.38;5.40;;;;;;;;;;4991748;28;20505;-72
2024/02/11 02:53:13;;;;;;;33.60;4.15;;;;;;;;;;4992099;28;20042;-71
2024/02/11 02:56:18;;;;;;;18.15;3.22;;;14.60;99.90;;;;;;4991529;28;20038;-71
2024/02/11 02:59:22;;;;;;;21.40;3.03;;;;;;;;;;4980010;28;20053;-72
2024/02/11 03:02:28;;;;;;;20.95;2.75;;;14.40;99.90;;;;;;4992057;28;20049;-71
2024/02/11 03:05:37;;;;;;;17.45;2.58;;;14.50;99.90;;;;;;4992021;28;20053;-72
2024/02/11 03:08:41;;;;;;;27.48;4.40;;;;;;;;;;4991970;28;20037;-71
2024/02/11 03:11:47;;;;;;;23.02;3.10;;;;;;;;;;4992154;28;20058;-71
2024/02/11 03:14:51;;;;;;;30.67;3.88;;;;;;;;;;4991233;28;20505;-72
2024/02/11 03:17:55;;;;;;;23.80;3.70;;;;;;;;;;4991892;28;20055;-72
2024/02/11 03:20:59;;;;;;;35.38;4.30;;;;;;;;;;4991013;28;20045;-72
2024/02/11 03:24:04;;;;;;;24.65;2.88;;;;;;;;;;4991555;28;20560;-71
2024/02/11 03:27:08;;;;;;;17.77;3.25;;;;;;;;;;4991226;28;20062;-72
2024/02/11 03:30:15;;;;;;;19.83;2.95;;;14.50;99.90;;;;;;4991734;28;20034;-72
2024/02/11 03:33:19;;;;;;;20.85;3.10;;;;;;;;;;4990757;28;20051;-72
2024/02/11 03:36:24;;;;;;;22.27;3.95;;;;;;;;;;4990859;28;20046;-71
2024/02/11 03:39:28;;;;;;;38.40;4.22;;;;;;;;;;4992314;28;20049;-72
2024/02/11 03:42:33;;;;;;;29.20;4.57;;;;;;;;;;4991153;28;20034;-72
2024/02/11 03:45:37;;;;;;;34.67;4.95;;;;;;;;;;4990603;28;20414;-72
2024/02/11 03:48:41;;;;;;;35.50;5.75;;;;;;;;;;4968987;28;20404;-73
2024/02/11 03:51:49;;;;;;;37.28;4.72;;;;;;;;;;4991693;28;20405;-71
2024/02/11 03:54:55;;;;;;;34.83;4.90;;;;;;;;;;4994975;28;20050;-74
2024/02/11 03:58:03;;;;;;;47.45;6.13;;;;;;;;;;4995720;28;20507;-73
2024/02/11 04:01:07;;;;;;;31.13;4.15;;;;;;;;;;4995978;28;20038;-74
2024/02/11 04:04:13;;;;;;;26.63;4.45;;;;;;;;;;4995171;28;20039;-73
2024/02/11 04:07:19;;;;;;;28.98;5.28;;;;;;;;;;4995533;28;20053;-73
2024/02/11 04:10:28;;;;;;;34.10;4.38;;;;;;;;;;4994694;28;20490;-73
2024/02/11 04:13:32;;;;;;;37.03;5.10;;;;;;;;;;4995489;28;20038;-74
2024/02/11 04:16:43;;;;;;;33.05;4.10;;;14.50;99.90;;;;;;4994882;28;20050;-71
2024/02/11 04:19:47;;;;;;;32.85;4.88;;;;;;;;;;4995197;28;20057;-72
2024/02/11 04:22:57;;;;;;;34.53;5.90;;;14.60;99.90;;;;;;4995262;28;20041;-72
2024/02/11 04:26:01;;;;;;;37.33;5.55;;;;;;;;;;4994901;28;20509;-72
2024/02/11 04:29:08;;;;;;;41.25;5.38;;;;;;;;;;4994444;28;20102;-72
2024/02/11 04:32:14;;;;;;;27.35;4.47;;;;;;;;;;4995031;28;20042;-73
2024/02/11 04:35:20;;;;;;;34.92;4.80;;;;;;;;;;4983225;28;20039;-73
2024/02/11 04:38:24;;;;;;;38.00;5.47;;;;;;;;;;4994650;28;20507;-73
2024/02/11 04:41:28;;;;;;;45.00;5.15;;;;;;;;;;4994772;28;20045;-73
2024/02/11 04:44:33;;;;;;;34.63;4.95;;;;;;;;;;4993943;28;20046;-73
2024/02/11 04:47:40;;;;;;;33.50;4.78;;;;;;;;;;4982745;28;20051;-71
2024/02/11 04:50:46;;;;;;;36.20;5.10;;;;;;;;;;4994533;28;20030;-72
2024/02/11 04:53:52;;;;;;;29.10;4.85;;;;;;;;;;4994525;28;20047;-72
2024/02/11 04:56:56;;;;;;;32.50;5.20;;;;;;;;;;4993784;28;20046;-72
2024/02/11 05:00:02;;;;;;;21.58;3.78;;;;;;;;;;4993623;28;20031;-72
2024/02/11 05:03:06;;;;;;;18.23;3.47;;;;;;;;;;4993555;28;20042;-72
2024/02/11 05:06:11;;;;;;;14.32;2.53;;;;;;;;;;4992790;28;20057;-72
2024/02/11 05:09:15;;;;;;;13.77;2.30;;;;;;;;;;4994448;28;20506;-72
2024/02/11 05:12:20;;;;;;;25.50;3.47;;;;;;;;;;4994307;28;20046;-72
2024/02/11 05:15:24;;;;;;;14.32;2.25;;;;;;;;;;4992895;28;20038;-72
2024/02/11 05:18:29;;;;;;;24.50;2.90;;;;;;;;;;4993288;28;20054;-72
2024/02/11 05:21:34;;;;;;;17.42;2.65;;;;;;;;;;4993991;28;20047;-72
2024/02/11 05:24:40;;;;;;;16.25;2.20;;;13.80;99.90;;;;;;4981857;28;20126;-72
2024/02/11 05:27:45;;;;;;;17.60;2.42;;;;;;;;;;4993830;28;20049;-72
2024/02/11 05:30:50;;;;;;;18.67;2.83;;;;;;;;;;4993034;28;20049;-72
2024/02/11 05:33:56;;;;;;;23.95;3.47;;;;;;;;;;4993847;28;20123;-72
2024/02/11 05:37:01;;;;;;;32.33;3.70;;;;;;;;;;4993545;28;20038;-72
2024/02/11 05:40:09;;;;;;;29.85;4.32;;;;;;;;;;4993674;28;20035;-72
2024/02/11 05:43:19;;;;;;;24.77;3.65;;;;;;;;;;4992825;28;20053;-72
2024/02/11 05:46:23;;;;;;;25.52;3.42;;;;;;;;;;4993173;28;20043;-72
2024/02/11 05:49:28;;;;;;;27.48;3.72;;;13.90;99.90;;;;;;4992523;28;20042;-72
2024/02/11 05:52:33;;;;;;;26.98;3.45;;;;;;;;;;4992498;28;20505;-72
2024/02/11 05:55:38;;;;;;;30.17;3.83;;;;;;;;;;4993224;28;20045;-72
2024/02/11 05:58:42;;;;;;;31.38;4.22;;;;;;;;;;4993471;28;20088;-72
2024/02/11 06:01:48;;;;;;;23.83;3.95;;;;;;;;;;4981194;28;20050;-71
2024/02/11 06:04:53;;;;;;;33.60;3.33;;;;;;;;;;4992894;28;20034;-72
2024/02/11 06:08:00;;;;;;;35.05;3.55;;;;;;;;;;4992230;28;20038;-72
2024/02/11 06:11:06;;;;;;;23.60;3.95;;;;;;;;;;4992417;28;20038;-72
2024/02/11 06:14:10;;;;;;;27.05;3.40;;;;;;;;;;4992036;28;20042;-73
2024/02/11 06:17:15;;;;;;;33.03;3.70;;;;;;;;;;4992402;28;20486;-72
2024/02/11 06:20:19;;;;;;;25.75;3.08;;;;;;;;;;4992821;28;20387;-72
2024/02/11 06:23:24;;;;;;;26.52;2.90;;;;;;;;;;4992765;28;20047;-72
2024/02/11 06:26:28;;;;;;;37.10;3.40;;;;;;;;;;4991781;28;20050;-72
2024/02/11 06:29:32;;;;;;;19.92;3.67;;;;;;;;;;4992801;28;20034;-72
2024/02/11 06:32:37;;;;;;;27.20;4.38;;;;;;;;;;4992534;28;20191;-72
2024/02/11 06:35:41;;;;;;;32.03;3.92;;;;;;;;;;4991830;28;20041;-72
2024/02/11 06:38:45;;;;;;;30.67;4.13;;;;;;;;;;4991806;28;20531;-72
2024/02/11 06:41:50;;;;;;;23.42;4.65;;;;;;;;;;4992836;28;20503;-72
2024/02/11 06:44:56;;;;;;;20.77;4.15;;;;;;;;;;4991765;28;20034;-72
2024/02/11 06:48:01;;;;;;;17.90;3.25;;;;;;;;;;4992549;28;20065;-72
2024/02/11 06:51:06;;;;;;;9.75;2.35;;;;;;;;;;4992517;28;20045;-72
2024/02/11 06:54:11;;;;;;;10.00;2.47;;;;;;;;;;4992846;28;20034;-73
2024/02/11 06:57:15;;;;;;;8.63;2.42;;;;;;;;;;4981003;28;20065;-72
2024/02/11 07:00:20;;;;;;;10.35;2.10;;;;;;;;;;4991254;28;20039;-72
2024/02/11 07:03:25;;;;;;;6.80;2.15;;;;;;;;;;4991394;28;20034;-72
2024/02/11 07:06:30;;;;;;;11.93;2.60;;;;;;;;;;4990875;28;20050;-72
2024/02/11 07:09:34;;;;;;;11.73;3.10;;;;;;;;;;4992126;28;20057;-72
2024/02/11 07:12:42;;;;;;;6.75;2.72;;;13.40;99.90;;;;;;4990884;28;20050;-72
2024/02/11 07:15:46;;;;;;;10.00;3.75;;;;;;;;;;4991585;28;20061;-72
2024/02/11 07:18:51;;;;;;;11.45;3.83;;;;;;;;;;4991060;28;20038;-72
2024/02/11 07:21:55;;;;;;;9.05;3.55;;;;;;;;;;4979617;28;20039;-72
2024/02/11 07:25:01;;;;;;;14.95;3.92;;;;;;;;;;4991795;28;20038;-72
2024/02/11 07:28:05;;;;;;;17.08;6.95;;;;;;;;;;4991040;28;20050;-72
2024/02/11 07:31:10;;;;;;;15.52;8.50;;;;;;;;;;4991878;28;20042;-72
2024/02/11 07:34:14;;;;;;;21.15;7.68;;;;;;;;;;4991512;28;20031;-72
2024/02/11 07:37:18;;;;;;;17.73;8.60;;;;;;;;;;4991518;28;20394;-72
2024/02/11 07:40:23;;;;;;;21.00;8.60;;;;;;;;;;4991450;28;20039;-72
2024/02/11 07:43:27;;;;;;;18.08;7.57;;;;;;;;;;4990539;28;20049;-72
2024/02/11 07:46:31;;;;;;;21.10;8.02;;;;;;;;;;4991303;28;20120;-72
2024/02/11 07:49:36;;;;;;;25.48;9.38;;;;;;;;;;4979726;28;20045;-72
2024/02/11 07:52:42;;;;;;;25.42;8.48;;;13.70;99.90;;;;;;4991348;28;20050;-73
2024/02/11 07:55:47;;;;;;;20.80;7.13;;;;;;;;;;4990716;28;20049;-72
2024/02/11 07:58:52;;;;;;;11.93;4.10;;;;;;;;;;4990645;28;20038;-73
2024/02/11 08:01:56;;;;;;;17.23;3.95;;;;;;;;;;4991541;28;20041;-73
2024/02/11 08:05:00;;;;;;;13.52;3.22;;;;;;;;;;4991326;28;20042;-73
2024/02/11 08:08:05;;;;;;;20.63;3.92;;;;;;;;;;4968164;28;20058;-73
2024/02/11 08:11:10;;;;;;;18.83;3.17;;;;;;;;;;4991520;28;20039;-73
2024/02/11 08:14:14;;;;;;;14.02;3.00;;;;;;;;;;4979222;28;20050;-73
2024/02/11 08:17:18;;;;;;;16.92;3.35;;;;;;;;;;4990036;28;20054;-73
2024/02/11 08:20:23;;;;;;;20.23;3.47;;;;;;;;;;4991325;28;20073;-73
2024/02/11 08:23:27;;;;;;;24.52;8.20;;;;;;;;;;4990845;28;20050;-72
2024/02/11 08:26:31;;;;;;;16.27;4.03;;;;;;;;;;4990878;28;20408;-73
2024/02/11 08:29:36;;;;;;;16.20;3.05;;;;;;;;;;4991154;28;20060;-73
2024/02/11 08:32:42;;;;;;;17.27;3.55;;;;;;;;;;4990255;28;20049;-72
2024/02/11 08:35:47;;;;;;;22.35;4.03;;;;;;;;;;4990389;28;20049;-72
2024/02/11 08:38:51;;;;;;;15.65;3.13;;;;;;;;;;4992099;28;20050;-73
2024/02/11 08:41:55;;;;;;;14.30;3.28;;;;;;;;;;4993763;28;20034;-72
2024/02/11 08:45:00;;;;;;;29.10;3.78;;;;;;;;;;4993681;28;20034;-72
2024/02/11 08:48:05;;;;;;;24.00;4.22;;;;;;;;;;4993920;28;20075;-73
2024/02/11 08:51:17;;;;;;;20.48;4.68;;;14.10;99.90;;;;;;4994335;28;20497;-73
2024/02/11 08:54:21;;;;;;;47.50;13.10;;;;;;;;;;4982491;28;20045;-73
2024/02/11 08:57:26;;;;;;;22.65;4.53;;;;;;;;;;4994387;28;20057;-73
2024/02/11 09:00:31;;;;;;;27.48;3.85;;;;;;;;;;4993281;28;20050;-73
2024/02/11 09:03:37;;;;;;;24.58;4.10;;;14.20;99.90;;;;;;4994147;28;20049;-73
2024/02/11 09:06:44;;;;;;;18.15;3.20;;;;;;;;;;4993881;28;20061;-73
2024/02/11 09:09:51;;;;;;;17.52;3.58;;;14.10;99.90;;;;;;4994408;28;20043;-73
2024/02/11 09:12:55;;;;;;;17.63;3.92;;;;;;;;;;4994133;28;20045;-73
2024/02/11 09:15:59;;;;;;;17.52;3.53;;;;;;;;;;4994078;28;20050;-74
2024/02/11 09:19:03;;;;;;;24.13;4.82;;;;;;;;;;4994007;28;20042;-73
2024/02/11 09:22:07;;;;;;;29.95;5.07;;;;;;;;;;4992943;28;20049;-73
2024/02/11 09:25:11;;;;;;;19.30;4.95;;;;;;;;;;4992948;28;20051;-73
2024/02/11 09:28:15;;;;;;;18.13;5.43;;;;;;;;;;4993069;28;20046;-73
2024/02/11 09:31:21;;;;;;;15.48;4.40;;;;;;;;;;4993548;28;20030;-73
2024/02/11 09:34:26;;;;;;;20.73;4.70;;;;;;;;;;4993752;28;20050;-72
2024/02/11 09:37:33;;;;;;;21.80;4.40;;;;;;;;;;4993444;28;20038;-74
2024/02/11 09:40:38;;;;;;;23.17;4.97;;;;;;;;;;4992893;28;20054;-73
2024/02/11 09:43:45;;;;;;;17.27;3.50;;;15.50;99.90;;;;;;4981791;28;20042;-73
2024/02/11 09:46:51;;;;;;;24.10;4.75;;;13.40;99.90;;;;;;4993266;28;20057;-73
2024/02/11 09:49:56;;;;;;;14.38;3.78;;;;;;;;;;4993200;28;20041;-73
2024/02/11 09:53:00;;;;;;;17.27;4.13;;;;;;;;;;4995275;28;20047;-73
2024/02/11 09:56:06;;;;;;;26.75;5.13;;;;;;;;;;4993246;28;20217;-73
2024/02/11 09:59:10;;;;;;;23.67;3.85;;;;;;;;;;4993299;28;20038;-72
2024/02/11 10:02:18;;;;;;;28.20;5.20;;;15.70;99.90;;;;;;4993400;28;20045;-74
2024/02/11 10:05:24;;;;;;;16.73;4.68;;;15.70;99.90;;;;;;4992461;28;20041;-73
2024/02/11 10:08:29;;;;;;;22.27;5.45;;;;;;;;;;4993164;28;20057;-72
2024/02/11 10:11:34;;;;;;;16.17;4.30;;;;;;;;;;4992201;28;20041;-73
2024/02/11 10:14:38;;;;;;;22.85;5.28;;;;;;;;;;4992644;28;20049;-72
2024/02/11 10:17:43;;;;;;;21.30;7.15;;;;;;;;;;4993084;28;20667;-72
2024/02/11 10:20:48;;;;;;;16.23;4.85;;;15.70;99.90;;;;;;4992151;28;20022;-72
2024/02/11 10:23:52;;;;;;;29.20;5.25;;;;;;;;;;4992738;28;20053;-72
2024/02/11 10:26:58;;;;;;;23.42;5.72;;;;;;;;;;4992773;28;20042;-71
2024/02/11 10:30:09;;;;;;;19.23;4.28;;;13.60;99.90;;;;;;4992941;28;20038;-71
2024/02/11 10:33:13;;;;;;;17.73;4.68;;;;;;;;;;4992821;28;20061;-72
2024/02/11 10:36:18;;;;;;;18.58;4.70;;;;;;;;;;4992802;28;20042;-71
2024/02/11 10:39:22;;;;;;;20.42;4.60;;;;;;;;;;4992291;28;20037;-71
2024/02/11 10:42:27;;;;;;;19.90;4.65;;;;;;;;;;4992838;28;20054;-72
2024/02/11 10:45:31;;;;;;;22.17;4.38;;;;;;;;;;4992608;28;20038;-72
2024/02/11 10:48:35;;;;;;;18.33;4.03;;;;;;;;;;4991835;28;20046;-72
2024/02/11 10:51:44;;;;;;;26.38;5.57;;;13.70;99.90;;;;;;4992463;28;20047;-72
2024/02/11 10:54:50;;;;;;;28.58;7.30;;;16.00;99.90;;;;;;4992276;28;20041;-72
2024/02/11 10:57:55;;;;;;;22.25;6.03;;;;;;;;;;4992276;28;20061;-72
2024/02/11 11:01:03;;;;;;;16.63;5.07;;;14.00;99.90;;;;;;4991137;28;20047;-72
2024/02/11 11:04:13;;;;;;;18.30;6.10;;;13.80;99.90;;;;;;4992296;28;20049;-72
2024/02/11 11:07:20;;;;;;;21.50;7.00;;;13.80;99.90;;;;;;4991031;28;20057;-72
2024/02/11 11:10:29;;;;;;;24.83;8.32;;;;;;;;;;4992271;28;20042;-73
2024/02/11 11:13:33;;;;;;;32.25;13.80;;;;;;;;;;4992293;28;20390;-72
2024/02/11 11:16:43;;;;;;;25.90;8.50;;;;;;;;;;4991780;28;20061;-73
2024/02/11 11:19:52;;;;;;;21.05;5.75;;;13.90;99.90;;;;;;4991871;28;20044;-73
2024/02/11 11:22:56;;;;;;;18.05;4.93;;;13.80;99.90;;;;;;4992062;28;20046;-72
2024/02/11 11:26:01;;;;;;;16.67;6.90;;;;;;;;;;4992170;28;20061;-72
2024/02/11 11:29:05;;;;;;;17.13;6.93;;;;;;;;;;4990947;28;20046;-72
2024/02/11 11:32:11;;;;;;;16.73;6.47;;;14.00;99.90;;;;;;4992078;28;20038;-72
2024/02/11 11:35:21;;;;;;;11.88;5.22;;;13.80;99.90;;;;;;4991711;28;20065;-71
2024/02/11 11:38:29;;;;;;;8.88;3.60;;;;;;;;;;4991825;28;20046;-72
2024/02/11 11:41:33;;;;;;;10.50;4.20;;;;;;;;;;4991593;28;20042;-72
2024/02/11 11:44:38;;;;;;;12.00;4.72;;;14.10;99.90;;;;;;4991664;28;20499;-72
2024/02/11 11:47:43;;;;;;;13.93;6.18;;;;;;;;;;4991171;28;20062;-72
2024/02/11 11:50:54;;;;;;;23.15;8.02;;;13.80;99.90;;;;;;4979574;28;20038;-71
2024/02/11 11:54:04;;;;;;;26.30;8.05;;;13.80;99.90;;;;;;4991479;28;20050;-72
2024/02/11 11:57:13;;;;;;;19.20;8.75;;;13.60;99.90;;;;;;4990696;28;20046;-72
2024/02/11 12:00:18;;;;;;;21.30;9.13;;;;;;;;;;4991634;28;20057;-72
2024/02/11 12:03:22;;;;;;;20.55;9.38;;;;;;;;;;4990613;28;20042;-72
2024/02/11 12:06:26;;;;;;;16.27;8.10;;;;;;;;;;4991257;28;20057;-72
2024/02/11 12:09:30;;;;;;;22.58;8.70;;;;;;;;;;4991537;28;20055;-72
2024/02/11 12:12:34;;;;;;;14.80;6.85;;;;;;;;;;4991194;28;20042;-72
2024/02/11 12:15:39;;;;;;;16.42;8.05;;;;;;;;;;4994918;28;20035;-72
2024/02/11 12:18:44;;;;;;;17.13;10.25;;;14.00;99.90;;;;;;4994417;28;20069;-72
2024/02/11 12:21:48;;;;;;;18.13;10.52;;;;;;;;;;4995135;28;20038;-72
2024/02/11 12:24:53;;;;;;;23.10;12.45;;;;;;;;;;4995005;28;20521;-73
2024/02/11 12:28:01;;;;;;;23.52;11.35;;;;;;;;;;4994925;28;20053;-72
2024/02/11 12:31:09;;;;;;;19.10;8.98;;;13.90;99.90;;;;;;4994699;28;20041;-71
2024/02/11 12:34:15;;;;;;;18.73;9.27;;;14.00;99.90;;;;;;4993898;28;20065;-71
2024/02/11 12:37:19;;;;;;;19.05;7.82;;;;;;;;;;4994776;28;20041;-71
2024/02/11 12:40:23;;;;;;;22.88;9.38;;;;;;;;;;4993828;28;20038;-71
2024/02/11 12:43:28;;;;;;;20.92;9.82;;;;;;;;;;4993714;28;20403;-71
2024/02/11 12:46:32;;;;;;;22.75;11.63;;;;;;;;;;4994490;28;20058;-72
2024/02/11 12:49:38;;;;;;;76.93;36.80;;;;;;;;;;4994294;28;20042;-73
2024/02/11 12:52:42;;;;;;;65.63;26.55;;;;;;;;;;4994680;28;20045;-71
2024/02/11 12:55:47;;;;;;;34.95;13.90;;;;;;;;;;4995060;28;20049;-71
2024/02/11 12:58:51;;;;;;;35.75;10.68;;;;;;;;;;4995138;28;20425;-71
2024/02/11 13:01:57;;;;;;;56.13;26.95;;;;;;;;;;4994542;28;20049;-71
2024/02/11 13:05:01;;;;;;;28.10;9.50;;;;;;;;;;4982514;28;20053;-72
2024/02/11 13:08:06;;;;;;;21.45;9.13;;;;;;;;;;4994223;28;20118;-71
2024/02/11 13:11:12;;;;;;;38.17;14.35;;;;;;;;;;4994390;28;20074;-71
2024/02/11 13:14:16;;;;;;;27.15;10.35;;;;;;;;;;4994068;28;20045;-71
2024/02/11 13:17:21;;;;;;;41.40;17.30;;;13.80;99.90;;;;;;4992920;28;20077;-72
2024/02/11 13:20:27;;;;;;;36.15;14.57;;;;;;;;;;4993062;28;20045;-71
2024/02/11 13:23:31;;;;;;;34.78;11.02;;;;;;;;;;4993766;28;20053;-71
2024/02/11 13:26:35;;;;;;;100.53;44.53;;;;;;;;;;4992888;28;20065;-72
2024/02/11 13:29:41;;;;;;;25.45;11.27;;;;;;;;;;4993830;28;20061;-72
2024/02/11 13:32:45;;;;;;;24.92;8.52;;;;;;;;;;4993237;28;20045;-71
2024/02/11 13:35:51;;;;;;;28.02;7.70;;;;;;;;;;4993935;28;20500;-72
2024/02/11 13:38:55;;;;;;;24.08;6.97;;;;;;;;;;4993916;28;20042;-72
2024/02/11 13:41:59;;;;;;;27.05;9.68;;;;;;;;;;4992585;28;20497;-72
2024/02/11 13:45:04;;;;;;;19.33;6.90;;;;;;;;;;4993823;28;20403;-73
2024/02/11 13:48:08;;;;;;;22.75;6.82;;;;;;;;;;4992794;28;20050;-73
2024/02/11 13:51:13;;;;;;;22.05;8.10;;;;;;;;;;4992711;28;20039;-73
2024/02/11 13:54:17;;;;;;;22.85;7.80;;;;;;;;;;4992590;28;20118;-73
2024/02/11 13:57:21;;;;;;;20.85;6.85;;;;;;;;;;4992802;28;20049;-73
2024/02/11 14:00:26;;;;;;;33.50;8.10;;;;;;;;;;4993549;28;20050;-73
2024/02/11 14:03:30;;;;;;;24.33;7.18;;;;;;;;;;4992534;28;20191;-73
2024/02/11 14:06:35;;;;;;;19.98;7.25;;;;;;;;;;4993228;28;20046;-73
2024/02/11 14:09:42;;;;;;;23.85;8.25;;;;;;;;;;4993406;28;20042;-73
2024/02/11 14:12:48;;;;;;;33.83;8.10;;;;;;;;;;4993275;28;20502;-73
2024/02/11 14:15:52;;;;;;;23.63;6.03;;;;;;;;;;4993029;28;20411;-74
2024/02/11 14:18:57;;;;;;;22.27;6.45;;;;;;;;;;4993001;28;20049;-73
2024/02/11 14:22:03;;;;;;;21.48;7.72;;;;;;;;;;4992737;28;20047;-72
2024/02/11 14:25:14;;;;;;;26.15;7.60;;;;;;;;;;4992294;28;20047;-73
2024/02/11 14:28:18;;;;;;;28.88;6.93;;;;;;;;;;4992238;28;20065;-74
2024/02/11 14:31:23;;;;;;;20.40;7.10;;;;;;;;;;4992907;28;20047;-73
2024/02/11 14:34:30;;;;;;;24.73;7.72;;;;;;;;;;4993037;28;20046;-73
2024/02/11 14:37:35;;;;;;;29.08;7.80;;;;;;;;;;4991522;28;20035;-73
2024/02/11 14:40:40;;;;;;;23.52;7.15;;;;;;;;;;4992827;28;20042;-73
2024/02/11 14:43:44;;;;;;;17.15;5.47;;;;;;;;;;4980599;28;20065;-72
2024/02/11 14:46:48;;;;;;;23.63;5.88;;;;;;;;;;4992531;28;20042;-72
2024/02/11 14:49:52;;;;;;;20.77;5.28;;;;;;;;;;4992905;28;20054;-72
2024/02/11 14:53:00;;;;;;;19.80;7.13;;;;;;;;;;4992304;28;20038;-72
2024/02/11 14:56:06;;;;;;;26.00;7.78;;;14.40;99.90;;;;;;4991757;28;20658;-72
2024/02/11 14:59:10;;;;;;;21.90;7.35;;;;;;;;;;4992493;28;20049;-72
2024/02/11 15:02:14;;;;;;;25.30;6.30;;;14.50;99.90;;;;;;4991529;28;20053;-72
2024/02/11 15:05:18;;;;;;;19.42;5.85;;;;;;;;;;4992310;28;20066;-72
2024/02/11 15:08:23;;;;;;;15.77;5.25;;;;;;;;;;4992295;28;20069;-73
2024/02/11 15:11:28;;;;;;;10.57;3.83;;;;;;;;;;4992278;28;20395;-72
2024/02/11 15:14:33;;;;;;;12.05;4.47;;;;;;;;;;4992169;28;20042;-72
2024/02/11 15:17:37;;;;;;;15.57;5.82;;;;;;;;;;4991751;28;20042;-72
2024/02/11 15:20:42;;;;;;;20.83;5.68;;;;;;;;;;4992014;28;20509;-72
2024/02/11 15:23:46;;;;;;;21.55;6.28;;;;;;;;;;4991563;28;20375;-72
2024/02/11 15:26:50;;;;;;;26.40;7.22;;;;;;;;;;4991732;28;20063;-73
2024/02/11 15:29:54;;;;;;;25.75;7.72;;;;;;;;;;4991837;28;20042;-74
2024/02/11 15:33:00;;;;;;;16.30;6.97;;;;;;;;;;4991463;28;20046;-73
2024/02/11 15:36:06;;;;;;;26.75;6.15;;;;;;;;;;4992004;28;20041;-73
2024/02/11 15:39:12;;;;;;;14.30;4.13;;;;;;;;;;4991644;28;20053;-73
2024/02/11 15:42:18;;;;;;;15.57;3.80;;;;;;;;;;4992558;28;20050;-72
2024/02/11 15:45:23;;;;;;;20.15;6.13;;;;;;;;;;4991670;28;20398;-73
2024/02/11 15:48:27;;;;;;;17.45;5.07;;;;;;;;;;4991477;28;20057;-72
2024/02/11 15:51:32;;;;;;;15.75;4.65;;;;;;;;;;4991622;28;20034;-72
2024/02/11 15:54:46;;;;;;;15.38;4.97;;;13.10;99.90;;;;;;4991604;28;20042;-72
2024/02/11 15:57:53;;;;;;;18.10;5.38;;;;;;;;;;4991596;28;20061;-72
2024/02/11 16:00:57;;;;;;;18.40;5.40;;;;;;;;;;4992042;28;20228;-72
2024/02/11 16:04:04;;;;;;;21.02;5.70;;;;;;;;;;4990231;28;20035;-72
2024/02/11 16:07:09;;;;;;;16.08;5.82;;;;;;;;;;4979948;28;20046;-72
2024/02/11 16:10:14;;;;;;;13.55;5.60;;;;;;;;;;4990718;28;20042;-72
2024/02/11 16:13:20;;;;;;;17.55;5.63;;;;;;;;;;4991129;28;20038;-72
2024/02/11 16:16:24;;;;;;;20.55;5.75;;;;;;;;;;4991221;28;20467;-72
2024/02/11 16:19:28;;;;;;;18.77;6.63;;;;;;;;;;4990697;28;20051;-72
2024/02/11 16:22:36;;;;;;;19.85;7.22;;;15.30;99.90;;;;;;4991203;28;20046;-72
2024/02/11 16:25:40;;;;;;;22.05;5.88;;;;;;;;;;4990511;28;20049;-72
2024/02/11 16:28:45;;;;;;;19.60;6.55;;;;;;;;;;4990436;28;20050;-72
2024/02/11 16:31:49;;;;;;;21.75;6.60;;;;;;;;;;4991192;28;20034;-71
2024/02/11 16:34:55;;;;;;;28.75;9.05;;;;;;;;;;4990983;28;20045;-73
2024/02/11 16:37:59;;;;;;;23.58;9.10;;;;;;;;;;4990884;28;20042;-73
2024/02/11 16:41:04;;;;;;;17.73;7.82;;;;;;;;;;4991136;28;20046;-72
2024/02/11 16:44:08;;;;;;;17.45;6.75;;;;;;;;;;4991314;28;20042;-72
2024/02/11 16:47:12;;;;;;;24.52;8.95;;;;;;;;;;4990872;28;20042;-72
2024/02/11 16:50:17;;;;;;;25.67;9.70;;;;;;;;;;4991227;28;20041;-72
2024/02/11 16:53:21;;;;;;;20.80;7.75;;;;;;;;;;4991035;28;20042;-72
2024/02/11 16:56:26;;;;;;;26.33;7.75;;;;;;;;;;4990923;28;20046;-72
2024/02/11 16:59:30;;;;;;;29.77;9.70;;;;;;;;;;4979263;28;20411;-72
2024/02/11 17:02:34;;;;;;;33.88;11.50;;;;;;;;;;4994332;28;20064;-73
2024/02/11 17:05:39;;;;;;;28.40;11.07;;;;;;;;;;4993443;28;20045;-73
2024/02/11 17:08:43;;;;;;;43.67;17.60;;;;;;;;;;4993649;28;20057;-73
2024/02/11 17:11:50;;;;;;;42.38;16.50;;;;;;;;;;4993313;28;20041;-73
2024/02/11 17:14:54;;;;;;;41.00;18.45;;;;;;;;;;4994386;28;20041;-73
2024/02/11 17:17:59;;;;;;;32.38;16.10;;;;;;;;;;4993436;28;20396;-72
2024/02/11 17:21:08;;;;;;;40.33;18.58;;;;;;;;;;4994013;28;20044;-73
2024/02/11 17:24:13;;;;;;;36.28;16.38;;;;;;;;;;4993740;28;20039;-73
2024/02/11 17:27:17;;;;;;;31.60;15.15;;;;;;;;;;4993706;28;20057;-72
2024/02/11 17:30:23;;;;;;;33.78;17.67;;;;;;;;;;4993245;28;20197;-73
2024/02/11 17:33:27;;;;;;;39.67;18.05;;;;;;;;;;4993862;28;20045;-73
2024/02/11 17:36:31;;;;;;;45.22;21.65;;;;;;;;;;4993689;28;20386;-73
2024/02/11 17:39:36;;;;;;;55.70;30.25;;;12.60;99.90;;;;;;4992695;28;20045;-73
2024/02/11 17:42:41;;;;;;;25.80;11.98;;;;;;;;;;4993522;28;20157;-74
2024/02/11 17:45:45;;;;;;;22.65;7.15;;;12.90;99.90;;;;;;4993919;28;20037;-74
2024/02/11 17:48:50;;;;;;;19.98;6.47;;;;;;;;;;4993923;28;20509;-73